Time;durP1;ratioP1;P1;durP2;ratioP2;P2;SDS_P1;SDS_P2;PMS_P1;PMS_P2;Temp;Humidity;BMP_temperature;BMP_pressure;BME280_temperature;BME280_humidity;BME280_pressure;Samples;Min_cycle;Max_cycle;Signal;HPM_P1;HPM_P2
2024/04/23 00:00:47;;;;;;;;;21.50;20.50;;;;;4.14;100.00;99767.50;6277181;20;2829460;-53
2024/04/23 00:03:14;;;;;;;;;18.67;18.67;;;;;4.68;100.00;99764.72;6276106;20;3558688;-53
2024/04/23 00:05:42;;;;;;;;;21.00;16.00;;;;;4.60;100.00;99771.19;6276765;20;3549594;-56
2024/04/23 00:08:08;;;;;;;;;26.50;24.50;;;;;4.70;100.00;99766.41;6305614;20;2483749;-54
2024/04/23 00:10:35;;;;;;;;;21.00;19.50;;;;;4.31;100.00;99763.38;6277533;20;2825323;-51
2024/04/23 00:13:03;;;;;;;;;23.00;18.00;;;;;4.04;100.00;99766.06;6275408;20;3579536;-53
2024/04/23 00:15:30;;;;;;;;;21.33;19.00;;;;;3.97;100.00;99748.56;6270067;20;3580499;-55
2024/04/23 00:17:57;;;;;;;;;20.00;19.00;;;;;4.12;100.00;99748.06;6275008;20;2837808;-54
2024/04/23 00:20:23;;;;;;;;;21.00;20.00;;;;;3.90;100.00;99752.38;6276807;20;2839909;-50
2024/04/23 00:22:50;;;;;;;;;20.00;20.00;;;;;4.01;100.00;99747.56;6277806;20;2828497;-55
2024/04/23 00:25:17;;;;;;;;;27.50;21.50;;;;;3.85;100.00;99752.53;6279508;20;2831553;-55
2024/04/23 00:27:44;;;;;;;;;26.00;19.00;;;;;3.80;100.00;99746.50;6274551;20;3571194;-54
2024/04/23 00:30:11;;;;;;;;;17.00;15.00;;;;;3.74;100.00;99752.88;6310527;20;2798260;-56
2024/04/23 00:32:38;;;;;;;;;25.67;16.00;;;;;3.87;100.00;99752.47;6275711;20;3596117;-51
2024/04/23 00:35:06;;;;;;;;;29.67;23.67;;;;;3.92;100.00;99734.59;6305963;20;3567997;-56
2024/04/23 00:37:33;;;;;;;;;31.00;23.00;;;;;3.97;100.00;99737.97;6274339;20;3581590;-54
2024/04/23 00:40:00;;;;;;;;;23.00;21.50;;;;;4.04;100.00;99735.97;6269474;20;2496106;-55
2024/04/23 00:42:26;;;;;;;;;28.00;19.50;;;;;4.04;100.00;99734.19;6276438;20;2842016;-55
2024/04/23 00:44:55;;;;;;;;;26.50;24.00;;;;;4.02;100.00;99735.16;6277721;20;2831662;-54
2024/04/23 00:47:22;;;;;;;;;23.00;20.00;;;;;3.88;100.00;99733.84;6276247;20;2829446;-54
2024/04/23 00:49:50;;;;;;;;;20.33;19.33;;;;;4.12;100.00;99732.13;6272419;20;3560793;-51
2024/04/23 00:52:17;;;;;;;;;23.00;18.00;;;;;3.70;100.00;99732.66;6279802;20;2832692;-57
2024/04/23 00:54:44;;;;;;;;;23.00;16.00;;;;;3.78;100.00;99735.06;6278559;20;2843052;-53
2024/04/23 00:57:11;;;;;;;;;23.67;19.00;;;;;3.69;100.00;99738.88;6273795;20;3564834;-51
2024/04/23 00:59:39;;;;;;;;;25.00;20.33;;;;;3.83;100.00;99729.59;6268116;20;3559745;-56
2024/04/23 01:02:06;;;;;;;;;18.00;16.00;;;;;3.69;100.00;99722.97;6306124;20;2831654;-51
2024/04/23 01:04:33;;;;;;;;;19.67;19.33;;;;;3.52;100.00;99734.09;6277411;20;3569130;-49
2024/04/23 01:07:01;;;;;;;;;31.50;19.00;;;;;3.66;100.00;99722.16;6302756;20;2500273;-45
2024/04/23 01:09:27;;;;;;;;;27.50;19.00;;;;;3.51;100.00;99723.56;6274755;20;2833663;-45
2024/04/23 01:11:54;;;;;;;;;23.00;18.00;;;;;3.45;100.00;99714.00;6275451;20;2842053;-46
2024/04/23 01:14:22;;;;;;;;;26.33;20.67;;;;;3.54;100.00;99709.31;6274287;20;3571197;-47
2024/04/23 01:16:50;;;;;;;;;24.00;19.00;;;;;3.52;100.00;99714.66;6270753;20;3560695;-45
2024/04/23 01:19:54;;;;;;;;;32.00;22.50;;;;;3.68;100.00;99707.94;6301702;20;2498701;-50
2024/04/23 01:22:57;;;;;;;;;20.67;20.67;;;;;3.68;100.00;99689.34;6275109;20;3561082;-52
2024/04/23 01:25:26;;;;;;;;;22.33;20.67;;;;;3.50;100.00;99684.63;6270194;20;3577456;-53
2024/04/23 01:27:54;;;;;;;;;18.33;18.00;;;;;3.49;100.00;99682.91;6273293;20;3568114;-55
2024/04/23 01:30:23;;;;;;;;;21.00;17.00;;;;;3.55;100.00;99687.16;6271867;20;3557548;-52
2024/04/23 01:32:52;;;;;;;;;22.33;19.33;;;;;3.70;100.00;99690.16;6305892;20;3567963;-55
2024/04/23 01:35:21;;;;;;;;;22.33;18.00;;;;;3.63;100.00;99685.97;6275420;20;3572128;-52
2024/04/23 01:37:53;;;;;;;;;19.33;15.67;;;;;3.86;100.00;99693.16;6305332;20;3568999;-55
2024/04/23 01:40:20;;;;;;;;;19.00;15.00;;;;;3.69;100.00;99687.56;6304991;20;2824325;-55
2024/04/23 01:42:49;;;;;;;;;23.00;18.67;;;;;3.63;100.00;99683.31;6273469;20;3580594;-54
2024/04/23 01:45:16;;;;;;;;;19.00;15.00;;;;;3.71;100.00;99686.59;6307513;20;2811783;-49
2024/04/23 01:47:46;;;;;;;;;26.67;21.00;;;;;3.65;100.00;99680.63;6275303;20;3578512;-57
2024/04/23 01:50:15;;;;;;;;;14.20;12.40;;;;;3.72;100.00;99680.38;6325607;20;2781639;-54
2024/04/23 01:52:43;;;;;;;;;21.33;19.00;;;;;3.71;100.00;99675.09;6269705;20;3561697;-54
2024/04/23 01:55:11;;;;;;;;;20.00;18.00;;;;;3.57;100.00;99675.56;6298677;20;3562760;-49
2024/04/23 01:57:39;;;;;;;;;19.00;15.00;;;;;3.67;100.00;99670.81;6268715;20;3560871;-48
2024/04/23 02:00:13;;;;;;;;;18.00;15.00;;;;;3.63;100.00;99671.84;6299116;20;3554625;-53
2024/04/23 02:02:42;;;;;;;;;20.00;13.67;;;;;3.68;100.00;99670.75;6302867;20;3547145;-50
2024/04/23 02:05:10;;;;;;;;;21.67;20.67;;;;;3.60;100.00;99671.94;6300784;20;3581583;-53
2024/04/23 02:07:38;;;;;;;;;21.50;19.00;;;;;3.69;100.00;99672.50;6272883;20;2827365;-49
2024/04/23 02:10:06;;;;;;;;;22.00;20.00;;;;;3.66;100.00;99663.75;6275071;20;3556625;-55
2024/04/23 02:12:32;;;;;;;;;18.00;16.00;;;;;3.65;100.00;99672.66;6305012;20;2831496;-54
2024/04/23 02:15:00;;;;;;;;;15.33;13.00;;;;;3.43;100.00;99670.72;6272820;20;2813070;-50
2024/04/23 02:17:28;;;;;;;;;14.00;13.60;;;;;3.40;100.00;99662.84;6328111;20;2817043;-49
2024/04/23 02:19:56;;;;;;;;;18.40;15.60;;;;;3.54;100.00;99665.06;6293479;20;2827392;-51
2024/04/23 02:22:24;;;;;;;;;20.00;17.33;;;;;3.70;100.00;99660.97;6273516;20;3558744;-53
2024/04/23 02:24:51;;;;;;;;;16.67;14.67;;;;;3.44;100.00;99653.00;6304529;20;3546104;-51
2024/04/23 02:27:19;;;;;;;;;21.00;14.33;;;;;3.25;100.00;99650.94;6301885;20;3553370;-52
2024/04/23 02:29:45;;;;;;;;;18.00;18.00;;;;;3.63;100.00;99647.94;6301107;20;2835840;-50
2024/04/23 02:32:12;;;;;;;;;14.00;14.00;;;;;3.32;100.00;99642.78;6273371;20;2796329;-51
2024/04/23 02:34:39;;;;;;;;;17.50;14.50;;;;;3.33;100.00;99644.53;6270665;20;2829502;-57
2024/04/23 02:37:05;;;;;;;;;18.00;16.00;;;;;3.38;100.00;99640.81;6271462;20;2821173;-50
2024/04/23 02:39:32;;;;;;;;;14.00;14.00;;;;;3.30;100.00;99641.06;6272014;20;2796073;-52
2024/04/23 02:42:01;;;;;;;;;19.00;16.20;;;;;3.69;100.00;99632.69;6302036;20;2814862;-51
2024/04/23 02:44:30;;;;;;;;;13.67;13.00;;;;;3.51;100.00;99633.31;6278064;20;2794129;-53
2024/04/23 02:46:57;;;;;;;;;15.33;15.00;;;;;3.21;100.00;99625.44;6308391;20;2806605;-53
2024/04/23 02:49:24;;;;;;;;;17.50;15.00;;;;;3.06;100.00;99617.97;6304431;20;2812882;-51
2024/04/23 02:51:54;;;;;;;;;15.67;14.00;;;;;3.35;100.00;99616.16;6278077;20;2809803;-53
2024/04/23 02:54:23;;;;;;;;;17.00;15.00;;;;;3.12;100.00;99617.78;6308952;20;2801465;-56
2024/04/23 02:56:51;;;;;;;;;17.67;15.00;;;;;2.92;100.00;99613.09;6302489;20;3565081;-55
2024/04/23 02:59:19;;;;;;;;;14.50;14.00;;;;;2.98;100.00;99618.22;6305354;20;2790908;-51
2024/04/23 03:01:46;;;;;;;;;17.00;15.00;;;;;3.07;100.00;99617.91;6274021;20;2793114;-52
2024/04/23 03:04:13;;;;;;;;;15.00;14.00;;;;;3.08;100.00;99610.81;6280647;20;2807588;-55
2024/04/23 03:06:39;;;;;;;;;14.50;13.00;;;;;2.91;100.00;99616.69;6274643;20;2792994;-51
2024/04/23 03:09:08;;;;;;;;;16.80;14.00;;;;;3.41;100.00;99610.66;6301675;20;2794184;-52
2024/04/23 03:11:34;;;;;;;;;19.00;14.00;;;;;3.03;100.00;99615.44;6277513;20;2810794;-53
2024/04/23 03:14:03;;;;;;;;;17.40;15.60;;;;;2.98;100.00;99617.38;6301626;20;2808658;-55
2024/04/23 03:16:30;;;;;;;;;14.50;14.50;;;;;2.99;100.00;99624.38;6276126;20;2807594;-50
2024/04/23 03:18:57;;;;;;;;;17.50;13.00;;;;;2.99;100.00;99624.38;6307332;20;2798337;-50
2024/04/23 03:21:23;;;;;;;;;13.00;13.00;;;;;3.03;100.00;99626.03;6279049;20;2789893;-53
2024/04/23 03:23:53;;;;;;;;;18.00;13.57;;;;;2.90;100.00;99619.34;6318595;20;1817095;-54
2024/04/23 03:26:24;;;;;;;;;16.14;15.86;;;;;2.81;100.00;99599.31;6348105;20;1812777;-50
2024/04/23 03:28:54;;;;;;;;;15.00;15.00;;;;;2.85;100.00;99596.53;6346801;20;1818581;-56
2024/04/23 03:31:21;;;;;;;;;15.67;14.00;;;;;2.91;100.00;99590.16;6307656;20;3537756;-52
2024/04/23 03:34:03;;;;;;;;;17.00;13.00;;;;;2.97;100.00;99582.00;6309171;20;2802460;-55
2024/04/23 03:36:30;;;;;;;;;22.00;17.00;;;;;2.66;100.00;99589.19;6277602;20;2824247;-51
2024/04/23 03:38:58;;;;;;;;;18.60;13.00;;;;;2.71;100.00;99589.91;6300178;20;2816001;-52
2024/04/23 03:41:26;;;;;;;;;20.33;18.33;;;;;2.73;100.00;99585.44;6278235;20;3573220;-53
2024/04/23 03:43:52;;;;;;;;;16.00;16.00;;;;;2.83;100.00;99577.13;6306845;20;2806494;-53
2024/04/23 03:46:21;;;;;;;;;16.60;15.40;;;;;2.95;100.00;99575.00;6302618;20;2805534;-53
2024/04/23 03:48:48;;;;;;;;;21.33;13.67;;;;;2.93;100.00;99572.41;6274342;20;2803444;-50
2024/04/23 03:51:15;;;;;;;;;14.00;12.00;;;;;3.15;100.00;99577.88;6308175;20;2783725;-51
2024/04/23 03:53:44;;;;;;;;;16.33;16.33;;;;;2.90;100.00;99582.25;6278645;20;3560781;-53
2024/04/23 03:56:11;;;;;;;;;21.00;15.50;;;;;2.94;100.00;99576.78;6307591;20;2803398;-54
2024/04/23 03:58:38;;;;;;;;;11.75;11.75;;;;;2.88;100.00;99579.66;6292630;20;1827577;-49
2024/04/23 04:01:05;;;;;;;;;21.00;14.00;;;;;3.13;100.00;99579.72;6309784;20;2805534;-55
2024/04/23 04:06:19;;;;;;;;;17.50;15.50;;;;;3.24;100.00;99582.91;6277683;20;2802356;-56
2024/04/23 04:08:46;;;;;;;;;19.33;14.00;;;;;3.08;100.00;99565.72;6276603;20;3553520;-53
2024/04/23 04:11:14;;;;;;;;;19.00;13.80;;;;;3.20;100.00;99575.94;6330798;20;2808628;-51
2024/04/23 04:13:41;;;;;;;;;13.50;13.50;;;;;3.18;100.00;99575.13;6276546;20;2796102;-55
2024/04/23 04:16:08;;;;;;;;;14.50;11.50;;;;;3.44;100.00;99578.69;6276604;20;2774279;-52
2024/04/23 04:18:37;;;;;;;;;14.80;13.40;;;;;3.33;100.00;99575.53;6296429;20;2799392;-52
2024/04/23 04:21:05;;;;;;;;;14.50;13.00;;;;;3.39;100.00;99572.66;6277143;20;2794057;-54
2024/04/23 04:23:32;;;;;;;;;13.00;13.00;;;;;3.29;100.00;99570.34;6274857;20;2802360;-53
2024/04/23 04:25:58;;;;;;;;;13.00;13.00;;;;;3.52;100.00;99576.63;6274277;20;2794043;-52
2024/04/23 04:28:27;;;;;;;;;18.20;13.00;;;;;3.46;100.00;99577.72;6299010;20;2804451;-51
2024/04/23 04:30:54;;;;;;;;;17.33;13.33;;;;;3.54;100.00;99573.94;6273501;20;3522259;-51
2024/04/23 04:33:23;;;;;;;;;15.00;14.20;;;;;3.96;100.00;99576.84;6331694;20;2816969;-56
2024/04/23 04:35:50;;;;;;;;;22.00;14.33;;;;;4.37;100.00;99569.13;6274260;20;3547153;-51
2024/04/23 04:38:19;;;;;;;;;17.60;12.60;;;;;4.08;100.00;99560.47;6328665;20;2807593;-52
2024/04/23 04:40:45;;;;;;;;;14.50;10.00;;;;;3.96;100.00;99555.59;6278476;20;2791984;-54
2024/04/23 04:43:14;;;;;;;;;14.80;12.20;;;;;4.04;100.00;99558.00;6302132;20;2798222;-57
2024/04/23 04:45:43;;;;;;;;;11.00;11.00;;;;;4.00;100.00;99551.91;6300481;20;2767059;-54
2024/04/23 04:48:12;;;;;;;;;15.60;14.60;;;;;4.49;100.00;99551.84;6329610;20;2807567;-55
2024/04/23 04:50:40;;;;;;;;;15.80;12.20;;;;;4.50;100.00;99562.44;6300078;20;2797246;-52
2024/04/23 04:53:07;;;;;;;;;14.33;12.00;;;;;6.59;100.00;99557.00;6275470;20;2790017;-55
2024/04/23 04:55:35;;;;;;;;;13.33;12.00;;;;;6.66;100.00;99564.72;6304274;20;2789956;-57
2024/04/23 04:58:03;;;;;;;;;20.00;14.33;;;;;5.57;100.00;99566.94;6304177;20;3526330;-54
2024/04/23 05:00:30;;;;;;;;;14.00;14.00;;;;;4.89;100.00;99559.09;6304093;20;2791970;-55
2024/04/23 05:02:57;;;;;;;;;22.50;19.00;;;;;4.92;100.00;99548.34;6307549;20;2831818;-51
2024/04/23 05:05:24;;;;;;;;;30.50;25.50;;;;;4.94;100.00;99541.16;6276045;20;2851320;-53
2024/04/23 05:07:51;;;;;;;;;22.00;20.00;;;;;5.46;100.00;99543.44;6272390;20;2500272;-53
2024/04/23 05:10:18;;;;;;;;;15.67;15.33;;;;;6.84;100.00;99542.47;6272937;20;3541976;-53
2024/04/23 05:12:47;;;;;;;;;12.60;12.00;;;;;5.27;100.00;99538.03;6330195;20;2786856;-54
2024/04/23 05:15:18;;;;;;;;;13.71;12.00;;;;;5.42;100.00;99532.03;6314097;20;1816989;-53
2024/04/23 05:17:44;;;;;;;;;9.00;9.00;;;;;5.49;100.00;99537.97;6304072;20;2741942;-52
2024/04/23 05:20:11;;;;;;;;;12.00;12.00;;;;;5.94;100.00;99524.44;6273073;20;2769164;-50
2024/04/23 05:22:38;;;;;;;;;11.50;11.50;;;;;6.22;100.00;99533.88;6277305;20;2796141;-53
2024/04/23 05:25:05;;;;;;;;;14.00;12.00;;;;;5.96;100.00;99532.38;6278778;20;2783699;-56
2024/04/23 05:27:32;;;;;;;;;18.00;13.00;;;;;6.07;100.00;99526.56;6273305;20;3524312;-52
2024/04/23 05:29:59;;;;;;;;;14.00;13.00;;;;;6.63;100.00;99520.38;6302660;20;2790351;-54
2024/04/23 05:35:13;;;;;;;;;11.00;10.50;;;;;7.21;100.00;99532.66;6276931;20;2781929;-50
2024/04/23 05:37:43;;;;;;;;;12.00;10.00;;;;;6.48;100.00;99532.66;6311839;20;2481715;-56
2024/04/23 05:40:13;;;;;;;;;14.00;11.40;;;;;6.47;100.00;99532.72;6337116;20;2811758;-52
2024/04/23 05:42:39;;;;;;;;;16.00;16.00;;;;;6.75;100.00;99535.78;6273222;20;2825276;-55
2024/04/23 05:45:07;;;;;;;;;20.00;18.00;;;;;6.14;100.00;99528.88;6274340;20;2829466;-56
2024/04/23 05:48:49;;;;;;;;;20.00;17.67;;;;;6.00;100.00;99525.97;6272927;20;3561709;-52
2024/04/23 05:52:32;;;;;;;;;13.67;13.33;;;;;6.04;100.00;99516.91;6304522;20;3515878;-53
2024/04/23 05:55:38;;;;;;;;;11.50;11.50;;;;;6.12;100.00;99532.56;6303685;20;2777364;-53
2024/04/23 05:58:09;;;;;;;;;10.57;10.43;;;;;6.37;100.00;99533.16;6313428;20;1819091;-57
2024/04/23 06:00:36;;;;;;;;;12.00;11.50;;;;;6.28;100.00;99535.38;6303386;20;2783636;-53
2024/04/23 06:03:04;;;;;;;;;12.00;12.00;;;;;6.20;100.00;99533.06;6272840;20;2788822;-55
2024/04/23 06:05:31;;;;;;;;;16.00;10.50;;;;;6.20;100.00;99530.41;6272482;20;2796151;-54
2024/04/23 06:07:59;;;;;;;;;15.00;13.20;;;;;6.11;100.00;99538.84;6299016;20;2792070;-56
2024/04/23 06:10:26;;;;;;;;;13.00;10.00;;;;;6.33;100.00;99536.88;6278397;20;2805608;-51
2024/04/23 06:12:53;;;;;;;;;14.50;10.50;;;;;6.41;100.00;99538.34;6272791;20;2782677;-53
2024/04/23 06:15:20;;;;;;;;;12.00;12.00;;;;;6.34;100.00;99537.75;6276929;20;2796200;-56
2024/04/23 06:17:48;;;;;;;;;10.50;10.50;;;;;6.43;100.00;99531.16;6278206;20;2787812;-52
2024/04/23 06:20:15;;;;;;;;;14.33;12.33;;;;;6.54;100.00;99529.69;6279617;20;2792029;-53
2024/04/23 06:22:48;;;;;;;;;14.60;12.20;;;;;6.55;100.00;99528.72;6335829;20;2798228;-56
2024/04/23 06:25:17;;;;;;;;;14.40;13.00;;;;;6.82;100.00;99529.22;6303176;20;2794069;-52
2024/04/23 06:27:43;;;;;;;;;14.00;11.00;;;;;7.09;100.00;99520.78;6279332;20;2789913;-56
2024/04/23 06:30:15;;;;;;;;;11.00;11.00;;;;;7.36;100.00;99512.31;6278498;20;2792167;-56
2024/04/23 06:32:42;;;;;;;;;12.33;12.33;;;;;7.68;100.00;99507.97;6279227;20;2792038;-56
2024/04/23 06:35:13;;;;;;;;;11.00;11.00;;;;;7.79;100.00;99516.28;6337268;20;2794067;-50
2024/04/23 06:37:40;;;;;;;;;15.67;13.33;;;;;7.79;100.00;99512.75;6279388;20;2800492;-55
2024/04/23 06:40:08;;;;;;;;;12.50;12.50;;;;;7.51;100.00;99506.19;6315704;20;2807608;-53
2024/04/23 06:42:37;;;;;;;;;11.00;11.00;;;;;7.28;100.00;99514.53;6279206;20;2796259;-52
2024/04/23 06:45:05;;;;;;;;;18.00;14.67;;;;;7.62;100.00;99514.50;6309258;20;3536752;-54
2024/04/23 06:47:33;;;;;;;;;12.00;12.00;;;;;7.90;100.00;99516.59;6309978;20;2784649;-53
2024/04/23 06:50:00;;;;;;;;;17.00;10.00;;;;;7.47;100.00;99515.31;6276558;20;2797651;-52
2024/04/23 06:52:27;;;;;;;;;17.33;12.00;;;;;8.01;100.00;99509.81;6278701;20;3520185;-52
2024/04/23 06:54:56;;;;;;;;;13.00;12.00;;;;;8.19;100.00;99518.63;6334472;20;2789925;-54
2024/04/23 06:57:24;;;;;;;;;15.33;13.00;;;;;8.27;100.00;99505.72;6279131;20;2793146;-53
2024/04/23 06:59:50;;;;;;;;;13.00;10.00;;;;;8.16;100.00;99516.97;6309085;20;2789988;-51
2024/04/23 07:02:18;;;;;;;;;12.67;12.67;;;;;8.21;100.00;99500.69;6276086;20;2801397;-48
2024/04/23 07:04:45;;;;;;;;;12.33;11.00;;;;;8.90;99.55;99508.44;6310956;20;2807571;-48
2024/04/23 07:07:12;;;;;;;;;14.00;14.00;;;;;7.86;100.00;99500.81;6314583;20;2805511;-49
2024/04/23 07:09:38;;;;;;;;;12.00;12.00;;;;;7.79;100.00;99497.56;6279408;20;2784698;-53
2024/04/23 07:12:06;;;;;;;;;10.50;10.00;;;;;7.89;100.00;99497.97;6278682;20;2785714;-53
2024/04/23 07:14:32;;;;;;;;;11.50;11.50;;;;;8.06;100.00;99505.94;6281666;20;2789970;-54
2024/04/23 07:17:01;;;;;;;;;11.20;9.00;;;;;8.00;100.00;99492.03;6305415;20;2773221;-50
2024/04/23 07:19:27;;;;;;;;;15.00;12.50;;;;;7.96;100.00;99496.69;6273307;20;2809701;-56
2024/04/23 07:21:55;;;;;;;;;16.00;13.00;;;;;8.40;100.00;99503.25;6280127;20;2802388;-53
2024/04/23 07:24:21;;;;;;;;;9.00;7.00;;;;;8.12;100.00;99502.94;6310232;20;2744045;-52
2024/04/23 07:26:51;;;;;;;;;14.00;12.00;;;;;7.94;100.00;99493.22;6276096;20;2794175;-52
2024/04/23 07:29:19;;;;;;;;;13.00;12.67;;;;;8.14;100.00;99495.69;6275918;20;2799389;-54
2024/04/23 07:31:46;;;;;;;;;12.00;11.00;;;;;7.99;100.00;99485.81;6306975;20;3515931;-50
2024/04/23 07:34:13;;;;;;;;;13.00;12.00;;;;;8.24;100.00;99481.81;6310586;20;2789994;-50
2024/04/23 07:36:39;;;;;;;;;12.00;12.00;;;;;8.67;100.00;99476.75;6274438;20;2794208;-52
2024/04/23 07:39:06;;;;;;;;;12.50;11.00;;;;;8.49;100.00;99490.22;6274988;20;2786751;-52
2024/04/23 07:41:35;;;;;;;;;10.40;10.40;;;;;8.31;100.00;99480.53;6302803;20;2785695;-51
2024/04/23 07:44:02;;;;;;;;;10.00;10.00;;;;;8.33;100.00;99478.63;6275321;20;2791964;-54
2024/04/23 07:46:30;;;;;;;;;10.60;10.60;;;;;8.55;100.00;99476.50;6302306;20;2782679;-52
2024/04/23 07:48:59;;;;;;;;;12.40;11.00;;;;;8.67;99.76;99466.06;6302111;20;2790936;-50
2024/04/23 07:51:25;;;;;;;;;15.50;12.00;;;;;9.06;100.00;99470.03;6280989;20;2798219;-50
2024/04/23 07:53:52;;;;;;;;;12.00;12.00;;;;;8.91;99.69;99478.03;6283806;20;2789868;-53
2024/04/23 07:56:21;;;;;;;;;15.00;11.50;;;;;8.56;100.00;99475.56;6281601;20;2794063;-53
2024/04/23 07:58:48;;;;;;;;;15.33;13.67;;;;;8.64;99.10;99483.16;6273277;20;2805739;-51
2024/04/23 08:01:16;;;;;;;;;14.00;13.00;;;;;8.84;99.89;99471.28;6307002;20;2794170;-50
2024/04/23 08:03:44;;;;;;;;;12.67;12.67;;;;;8.65;99.54;99465.28;6278945;20;2798617;-53
2024/04/23 08:06:11;;;;;;;;;12.00;12.00;;;;;8.63;99.04;99464.50;6309424;20;3533641;-56
2024/04/23 08:08:39;;;;;;;;;15.50;14.50;;;;;8.63;99.47;99464.50;6309611;20;2809883;-51
2024/04/23 08:11:06;;;;;;;;;13.00;11.50;;;;;8.59;99.96;99469.16;6283502;20;2794039;-51
2024/04/23 08:13:32;;;;;;;;;15.00;15.00;;;;;8.59;100.00;99462.97;6279062;20;2819030;-52
2024/04/23 08:16:00;;;;;;;;;12.00;12.00;;;;;8.62;100.00;99450.25;6277040;20;3525307;-54
2024/04/23 08:18:26;;;;;;;;;13.50;13.00;;;;;8.86;99.22;99445.28;6310166;20;2798307;-53
2024/04/23 08:20:53;;;;;;;;;14.00;14.00;;;;;8.70;100.00;99450.69;6280932;20;2799331;-50
2024/04/23 08:23:20;;;;;;;;;16.00;13.00;;;;;8.73;100.00;99441.59;6276612;20;3544096;-52
2024/04/23 08:25:47;;;;;;;;;14.50;13.00;;;;;8.71;100.00;99443.50;6309603;20;2810840;-52
2024/04/23 08:28:14;;;;;;;;;14.00;12.67;;;;;8.92;100.00;99442.25;6275555;20;2792068;-51
2024/04/23 08:30:43;;;;;;;;;15.00;13.67;;;;;8.91;100.00;99429.81;6304891;20;3516960;-50
2024/04/23 08:33:10;;;;;;;;;16.00;15.33;;;;;8.82;99.68;99427.72;6309173;20;3535698;-54
2024/04/23 08:35:38;;;;;;;;;16.33;13.67;;;;;8.80;100.00;99418.91;6274457;20;3529400;-53
2024/04/23 08:38:04;;;;;;;;;13.00;13.00;;;;;8.91;100.00;99416.44;6307961;20;2807662;-51
2024/04/23 08:40:31;;;;;;;;;13.00;13.00;;;;;8.78;99.97;99410.09;6279869;20;2794180;-55
2024/04/23 08:43:15;;;;;;;;;13.33;11.33;;;;;8.90;100.00;99409.38;6277393;20;2792000;-57
2024/04/23 08:45:43;;;;;;;;;14.00;14.00;;;;;8.90;99.22;99409.38;6305374;20;3535679;-57
2024/04/23 08:48:11;;;;;;;;;18.00;15.00;;;;;8.99;99.45;99398.09;6308557;20;2824261;-57
2024/04/23 08:50:38;;;;;;;;;15.00;15.00;;;;;9.11;99.58;99401.00;6278999;20;2815982;-55
2024/04/23 08:53:07;;;;;;;;;11.67;11.67;;;;;8.99;98.27;99395.41;6277779;20;3520144;-56
2024/04/23 08:55:44;;;;;;;;;13.00;12.00;;;;;9.05;99.19;99393.34;6311111;20;2794132;-56
2024/04/23 08:58:13;;;;;;;;;14.67;12.33;;;;;9.05;99.95;99391.50;6276545;20;3515914;-55
2024/04/23 09:00:41;;;;;;;;;14.50;14.50;;;;;9.09;98.95;99384.19;6310195;20;2801410;-56
2024/04/23 09:03:12;;;;;;;;;12.33;12.33;;;;;9.29;98.75;99375.75;6275957;20;2796177;-52
2024/04/23 09:05:41;;;;;;;;;15.50;14.00;;;;;9.69;96.95;99378.69;6311206;20;2798231;-53
2024/04/23 09:08:09;;;;;;;;;12.00;12.00;;;;;9.44;94.91;99382.88;6275929;20;2791968;-54
2024/04/23 09:10:36;;;;;;;;;12.67;12.67;;;;;9.61;95.16;99367.53;6277821;20;2786727;-53
2024/04/23 09:13:03;;;;;;;;;16.50;13.50;;;;;9.54;93.65;99371.59;6307460;20;2800324;-55
2024/04/23 09:15:31;;;;;;;;;11.50;10.00;;;;;9.74;91.68;99365.84;6277312;20;2796117;-54
2024/04/23 09:17:59;;;;;;;;;14.00;13.00;;;;;10.11;89.20;99366.16;6276063;20;3540957;-56
2024/04/23 09:20:26;;;;;;;;;16.33;14.67;;;;;10.19;88.37;99355.78;6308235;20;3547274;-53
2024/04/23 09:22:59;;;;;;;;;12.67;12.67;;;;;10.59;86.92;99358.56;6274821;20;2792150;-54
2024/04/23 09:25:35;;;;;;;;;15.50;14.00;;;;;10.88;85.56;99355.72;6311954;20;2805501;-56
2024/04/23 09:28:05;;;;;;;;;14.67;13.00;;;;;11.08;83.04;99347.13;6272856;20;3537777;-53
2024/04/23 09:30:32;;;;;;;;;16.00;15.00;;;;;11.41;82.99;99338.56;6309187;20;2810734;-51
2024/04/23 09:33:03;;;;;;;;;9.00;9.00;;;;;11.81;81.75;99342.91;6279852;20;2743044;-46
2024/04/23 09:35:31;;;;;;;;;16.00;14.33;;;;;11.15;84.28;99337.69;6275406;20;3534681;-47
2024/04/23 09:37:59;;;;;;;;;13.67;13.67;;;;;10.41;86.22;99323.06;6304793;20;3532094;-48
2024/04/23 09:40:26;;;;;;;;;13.00;12.50;;;;;10.79;86.03;99329.47;6278250;20;2797170;-49
2024/04/23 09:42:54;;;;;;;;;14.33;14.33;;;;;11.20;83.92;99323.94;6274348;20;3539869;-48
2024/04/23 09:45:28;;;;;;;;;16.67;16.00;;;;;11.42;84.34;99328.66;6272184;20;3562749;-46
2024/04/23 09:47:55;;;;;;;;;14.67;14.67;;;;;11.46;82.81;99322.09;6274187;20;3533592;-46
2024/04/23 09:50:27;;;;;;;;;16.00;14.00;;;;;11.26;82.38;99317.28;6306585;20;2494029;-46
2024/04/23 09:53:03;;;;;;;;;16.67;16.67;;;;;11.27;83.43;99310.91;6281171;20;2835845;-47
2024/04/23 09:55:30;;;;;;;;;17.00;16.00;;;;;11.21;83.57;99301.47;6308075;20;2491964;-44
2024/04/23 09:57:56;;;;;;;;;16.00;16.00;;;;;11.20;82.57;99292.56;6283801;20;2821119;-47
2024/04/23 10:00:30;;;;;;;;;16.50;15.17;;;;;11.16;82.09;99291.06;6302156;20;2814954;-46
2024/04/23 10:03:11;;;;;;;;;17.00;17.00;;;;;11.34;82.58;99290.72;6315609;20;2821134;-46
2024/04/23 10:05:46;;;;;;;;;18.00;17.50;;;;;11.98;81.77;99287.91;6278746;20;2500331;-48
2024/04/23 10:09:13;;;;;;;;;17.33;16.33;;;;;11.35;80.36;99287.06;6280220;20;3554435;-49
2024/04/23 10:11:50;;;;;;;;;13.67;13.67;;;;;11.92;81.21;99277.59;6277307;20;3521108;-46
2024/04/23 10:14:31;;;;;;;;;16.33;13.67;;;;;12.04;78.48;99268.63;6311607;20;3538931;-46
2024/04/23 10:17:02;;;;;;;;;16.00;16.00;;;;;12.51;77.55;99266.88;6281277;20;2817986;-45
2024/04/23 10:19:30;;;;;;;;;14.00;14.00;;;;;12.47;76.78;99260.84;6278268;20;3530525;-45
2024/04/23 10:22:01;;;;;;;;;18.00;17.00;;;;;12.34;78.02;99260.06;6308022;20;2496151;-47
2024/04/23 10:24:28;;;;;;;;;13.00;13.00;;;;;12.70;77.95;99260.94;6279022;20;3539917;-47
2024/04/23 10:26:55;;;;;;;;;17.50;17.00;;;;;12.57;76.89;99252.94;6307280;20;2491982;-48
2024/04/23 10:29:24;;;;;;;;;21.67;20.00;;;;;12.69;75.53;99251.13;6277487;20;2848359;-48
2024/04/23 10:31:51;;;;;;;;;20.00;19.00;;;;;12.51;75.47;99248.91;6312628;20;3573225;-47
2024/04/23 10:34:20;;;;;;;;;14.50;14.50;;;;;12.75;75.20;99242.59;6277172;20;2804495;-46
2024/04/23 10:36:49;;;;;;;;;13.00;13.00;;;;;12.68;73.36;99238.66;6277948;20;3507911;-46
2024/04/23 10:39:21;;;;;;;;;14.00;14.00;;;;;12.84;72.57;99239.16;6310396;20;2801055;-46
2024/04/23 10:41:49;;;;;;;;;10.33;10.33;;;;;12.21;72.68;99237.75;6278030;20;3507586;-48
2024/04/23 10:44:21;;;;;;;;;12.33;11.00;;;;;13.01;72.12;99234.31;6308876;20;3513824;-47
2024/04/23 10:46:47;;;;;;;;;13.50;13.50;;;;;13.34;70.49;99220.00;6312770;20;2796151;-45
2024/04/23 10:49:19;;;;;;;;;12.00;12.00;;;;;12.89;71.19;99220.81;6282114;20;2787969;-44
2024/04/23 10:51:48;;;;;;;;;16.67;14.67;;;;;12.72;72.37;99213.19;6279399;20;3535677;-45
2024/04/23 10:54:19;;;;;;;;;13.00;11.50;;;;;13.20;72.08;99209.44;6312372;20;2788976;-46
2024/04/23 10:57:01;;;;;;;;;17.00;15.00;;;;;13.70;70.02;99210.75;6282494;20;2828482;-47
2024/04/23 10:59:32;;;;;;;;;11.50;11.50;;;;;13.15;71.77;99204.41;6283116;20;2794041;-46
2024/04/23 11:02:06;;;;;;;;;15.67;11.33;;;;;13.00;71.63;99200.25;6277331;20;3531536;-47
2024/04/23 11:04:45;;;;;;;;;14.50;13.00;;;;;12.90;72.25;99192.91;6279415;20;2500303;-46
2024/04/23 11:07:25;;;;;;;;;15.50;12.00;;;;;13.60;70.77;99199.00;6284196;20;2796233;-47
2024/04/23 11:09:58;;;;;;;;;12.67;11.67;;;;;13.63;69.02;99181.72;6275554;20;3531621;-47
2024/04/23 11:12:25;;;;;;;;;14.50;14.50;;;;;14.23;68.84;99185.66;6312512;20;2804442;-47
2024/04/23 11:14:53;;;;;;;;;11.00;11.00;;;;;13.75;69.75;99175.31;6282612;20;2798357;-46
2024/04/23 11:17:21;;;;;;;;;14.67;14.00;;;;;13.87;69.64;99174.25;6278402;20;3546210;-49